sensor_id;sensor_type;location;lat;lon;timestamp;P1;durP1;ratioP1;P2;durP2;ratioP2
52940;SDS011;62001;53.366;6.636;2023-04-24T00:00:55;10.05;;;7.57;;
52940;SDS011;62001;53.366;6.636;2023-04-24T00:03:24;8.32;;;7.45;;
52940;SDS011;62001;53.366;6.636;2023-04-24T00:05:51;8.50;;;7.50;;
52940;SDS011;62001;53.366;6.636;2023-04-24T00:08:17;8.50;;;7.60;;
52940;SDS011;62001;53.366;6.636;2023-04-24T00:10:43;10.02;;;7.95;;
52940;SDS011;62001;53.366;6.636;2023-04-24T00:13:09;9.93;;;7.55;;
52940;SDS011;62001;53.366;6.636;2023-04-24T00:15:35;10.07;;;8.02;;
52940;SDS011;62001;53.366;6.636;2023-04-24T00:18:01;10.43;;;8.30;;
52940;SDS011;62001;53.366;6.636;2023-04-24T00:20:28;9.48;;;8.48;;
52940;SDS011;62001;53.366;6.636;2023-04-24T00:22:54;14.23;;;8.45;;
52940;SDS011;62001;53.366;6.636;2023-04-24T00:25:21;10.73;;;8.43;;
52940;SDS011;62001;53.366;6.636;2023-04-24T00:27:47;11.55;;;9.25;;
52940;SDS011;62001;53.366;6.636;2023-04-24T00:30:13;11.23;;;9.15;;
52940;SDS011;62001;53.366;6.636;2023-04-24T00:32:39;12.65;;;9.85;;
52940;SDS011;62001;53.366;6.636;2023-04-24T00:35:05;11.48;;;9.13;;
52940;SDS011;62001;53.366;6.636;2023-04-24T00:37:32;17.40;;;9.75;;
52940;SDS011;62001;53.366;6.636;2023-04-24T00:39:57;12.38;;;9.57;;
52940;SDS011;62001;53.366;6.636;2023-04-24T00:42:23;10.90;;;9.52;;
52940;SDS011;62001;53.366;6.636;2023-04-24T00:44:49;11.30;;;9.52;;
52940;SDS011;62001;53.366;6.636;2023-04-24T00:47:16;14.90;;;9.63;;
52940;SDS011;62001;53.366;6.636;2023-04-24T00:49:43;12.23;;;9.30;;
52940;SDS011;62001;53.366;6.636;2023-04-24T00:52:09;13.90;;;9.48;;
52940;SDS011;62001;53.366;6.636;2023-04-24T00:54:35;11.50;;;9.65;;
52940;SDS011;62001;53.366;6.636;2023-04-24T00:57:04;13.38;;;9.27;;
52940;SDS011;62001;53.366;6.636;2023-04-24T00:59:30;11.65;;;8.73;;
52940;SDS011;62001;53.366;6.636;2023-04-24T01:01:57;7.95;;;7.07;;
52940;SDS011;62001;53.366;6.636;2023-04-24T01:04:23;8.00;;;6.82;;
52940;SDS011;62001;53.366;6.636;2023-04-24T01:06:51;8.25;;;6.10;;
52940;SDS011;62001;53.366;6.636;2023-04-24T01:09:17;7.88;;;6.22;;
52940;SDS011;62001;53.366;6.636;2023-04-24T01:11:44;6.85;;;5.75;;
52940;SDS011;62001;53.366;6.636;2023-04-24T01:14:10;6.93;;;5.80;;
52940;SDS011;62001;53.366;6.636;2023-04-24T01:16:36;5.15;;;4.63;;
52940;SDS011;62001;53.366;6.636;2023-04-24T01:19:03;4.18;;;3.38;;
52940;SDS011;62001;53.366;6.636;2023-04-24T01:21:31;3.47;;;3.03;;
52940;SDS011;62001;53.366;6.636;2023-04-24T01:24:02;2.88;;;2.40;;
52940;SDS011;62001;53.366;6.636;2023-04-24T01:26:29;2.95;;;2.38;;
52940;SDS011;62001;53.366;6.636;2023-04-24T01:28:54;4.35;;;2.40;;
52940;SDS011;62001;53.366;6.636;2023-04-24T01:31:21;2.03;;;1.90;;
52940;SDS011;62001;53.366;6.636;2023-04-24T01:33:47;2.92;;;1.92;;
52940;SDS011;62001;53.366;6.636;2023-04-24T01:36:14;2.28;;;2.08;;
52940;SDS011;62001;53.366;6.636;2023-04-24T01:38:41;2.33;;;2.13;;
52940;SDS011;62001;53.366;6.636;2023-04-24T01:41:07;2.53;;;2.30;;
52940;SDS011;62001;53.366;6.636;2023-04-24T01:43:33;2.33;;;2.10;;
52940;SDS011;62001;53.366;6.636;2023-04-24T01:45:59;2.00;;;1.90;;
52940;SDS011;62001;53.366;6.636;2023-04-24T01:48:24;2.45;;;2.05;;
52940;SDS011;62001;53.366;6.636;2023-04-24T01:50:51;2.13;;;1.98;;
52940;SDS011;62001;53.366;6.636;2023-04-24T01:53:16;2.42;;;2.20;;
52940;SDS011;62001;53.366;6.636;2023-04-24T01:55:42;3.08;;;2.15;;
52940;SDS011;62001;53.366;6.636;2023-04-24T01:58:08;3.97;;;2.20;;
52940;SDS011;62001;53.366;6.636;2023-04-24T02:00:34;2.75;;;2.33;;
52940;SDS011;62001;53.366;6.636;2023-04-24T02:03:00;4.07;;;2.58;;
52940;SDS011;62001;53.366;6.636;2023-04-24T02:05:27;2.58;;;2.38;;
52940;SDS011;62001;53.366;6.636;2023-04-24T02:07:53;2.53;;;2.33;;
52940;SDS011;62001;53.366;6.636;2023-04-24T02:10:19;3.08;;;2.55;;
52940;SDS011;62001;53.366;6.636;2023-04-24T02:12:44;2.95;;;2.63;;
52940;SDS011;62001;53.366;6.636;2023-04-24T02:15:10;3.13;;;2.83;;
52940;SDS011;62001;53.366;6.636;2023-04-24T02:17:37;2.55;;;2.35;;
52940;SDS011;62001;53.366;6.636;2023-04-24T02:20:04;2.72;;;2.33;;
52940;SDS011;62001;53.366;6.636;2023-04-24T02:22:31;2.97;;;2.78;;
52940;SDS011;62001;53.366;6.636;2023-04-24T02:24:57;2.80;;;2.58;;
52940;SDS011;62001;53.366;6.636;2023-04-24T02:27:23;2.85;;;2.65;;
52940;SDS011;62001;53.366;6.636;2023-04-24T02:29:49;2.97;;;2.78;;
52940;SDS011;62001;53.366;6.636;2023-04-24T02:32:15;4.18;;;2.75;;
52940;SDS011;62001;53.366;6.636;2023-04-24T02:34:41;3.10;;;2.90;;
52940;SDS011;62001;53.366;6.636;2023-04-24T02:37:06;3.05;;;2.75;;
52940;SDS011;62001;53.366;6.636;2023-04-24T02:39:32;3.85;;;3.15;;
52940;SDS011;62001;53.366;6.636;2023-04-24T02:41:58;3.53;;;3.22;;
52940;SDS011;62001;53.366;6.636;2023-04-24T02:44:25;4.40;;;3.38;;
52940;SDS011;62001;53.366;6.636;2023-04-24T02:46:51;4.55;;;3.40;;
52940;SDS011;62001;53.366;6.636;2023-04-24T02:49:17;4.10;;;3.80;;
52940;SDS011;62001;53.366;6.636;2023-04-24T02:51:43;4.93;;;3.58;;
52940;SDS011;62001;53.366;6.636;2023-04-24T02:54:08;4.43;;;4.03;;
52940;SDS011;62001;53.366;6.636;2023-04-24T02:56:37;5.50;;;4.43;;
52940;SDS011;62001;53.366;6.636;2023-04-24T02:59:03;4.55;;;4.15;;
52940;SDS011;62001;53.366;6.636;2023-04-24T03:01:29;5.05;;;4.65;;
52940;SDS011;62001;53.366;6.636;2023-04-24T03:03:55;5.20;;;4.80;;
52940;SDS011;62001;53.366;6.636;2023-04-24T03:06:20;7.13;;;5.20;;
52940;SDS011;62001;53.366;6.636;2023-04-24T03:08:46;6.07;;;5.47;;
52940;SDS011;62001;53.366;6.636;2023-04-24T03:11:12;6.38;;;5.88;;
52940;SDS011;62001;53.366;6.636;2023-04-24T03:13:38;9.20;;;6.00;;
52940;SDS011;62001;53.366;6.636;2023-04-24T03:16:04;6.47;;;5.88;;
52940;SDS011;62001;53.366;6.636;2023-04-24T03:18:30;7.65;;;6.80;;
52940;SDS011;62001;53.366;6.636;2023-04-24T03:20:56;7.07;;;6.38;;
52940;SDS011;62001;53.366;6.636;2023-04-24T03:23:22;7.75;;;7.05;;
52940;SDS011;62001;53.366;6.636;2023-04-24T03:25:48;7.97;;;7.28;;
52940;SDS011;62001;53.366;6.636;2023-04-24T03:28:14;8.25;;;7.35;;
52940;SDS011;62001;53.366;6.636;2023-04-24T03:30:40;8.98;;;8.07;;
52940;SDS011;62001;53.366;6.636;2023-04-24T03:33:06;8.20;;;7.40;;
52940;SDS011;62001;53.366;6.636;2023-04-24T03:35:31;9.85;;;7.90;;
52940;SDS011;62001;53.366;6.636;2023-04-24T03:37:57;9.05;;;8.15;;
52940;SDS011;62001;53.366;6.636;2023-04-24T03:40:23;12.25;;;8.57;;
52940;SDS011;62001;53.366;6.636;2023-04-24T03:42:49;9.32;;;8.43;;
52940;SDS011;62001;53.366;6.636;2023-04-24T03:45:15;10.77;;;8.60;;
52940;SDS011;62001;53.366;6.636;2023-04-24T03:47:41;10.30;;;9.15;;
52940;SDS011;62001;53.366;6.636;2023-04-24T03:50:06;10.40;;;9.30;;
52940;SDS011;62001;53.366;6.636;2023-04-24T03:52:32;12.85;;;9.98;;
52940;SDS011;62001;53.366;6.636;2023-04-24T03:54:58;12.80;;;10.38;;
52940;SDS011;62001;53.366;6.636;2023-04-24T03:57:24;12.40;;;10.45;;
52940;SDS011;62001;53.366;6.636;2023-04-24T03:59:50;11.27;;;10.02;;
52940;SDS011;62001;53.366;6.636;2023-04-24T04:02:16;11.40;;;10.20;;
52940;SDS011;62001;53.366;6.636;2023-04-24T04:04:42;12.18;;;10.88;;
52940;SDS011;62001;53.366;6.636;2023-04-24T04:07:08;13.57;;;10.85;;
52940;SDS011;62001;53.366;6.636;2023-04-24T04:09:33;11.70;;;10.38;;
52940;SDS011;62001;53.366;6.636;2023-04-24T04:11:59;12.68;;;11.30;;
52940;SDS011;62001;53.366;6.636;2023-04-24T04:14:26;15.32;;;11.98;;
52940;SDS011;62001;53.366;6.636;2023-04-24T04:16:52;12.38;;;11.13;;
52940;SDS011;62001;53.366;6.636;2023-04-24T04:19:18;15.02;;;12.27;;
52940;SDS011;62001;53.366;6.636;2023-04-24T04:21:44;15.32;;;12.88;;
52940;SDS011;62001;53.366;6.636;2023-04-24T04:24:11;16.02;;;13.13;;
52940;SDS011;62001;53.366;6.636;2023-04-24T04:26:37;18.42;;;13.50;;
52940;SDS011;62001;53.366;6.636;2023-04-24T04:29:03;15.30;;;13.57;;
52940;SDS011;62001;53.366;6.636;2023-04-24T04:31:29;16.63;;;14.02;;
52940;SDS011;62001;53.366;6.636;2023-04-24T04:33:55;19.33;;;14.63;;
52940;SDS011;62001;53.366;6.636;2023-04-24T04:36:21;19.85;;;15.18;;
52940;SDS011;62001;53.366;6.636;2023-04-24T04:38:49;18.95;;;14.30;;
52940;SDS011;62001;53.366;6.636;2023-04-24T04:41:14;18.70;;;15.02;;
52940;SDS011;62001;53.366;6.636;2023-04-24T04:43:43;18.77;;;14.73;;
52940;SDS011;62001;53.366;6.636;2023-04-24T04:46:09;18.10;;;14.82;;
52940;SDS011;62001;53.366;6.636;2023-04-24T04:48:36;19.95;;;16.17;;
52940;SDS011;62001;53.366;6.636;2023-04-24T04:51:02;19.48;;;15.20;;
52940;SDS011;62001;53.366;6.636;2023-04-24T04:53:28;18.02;;;15.05;;
52940;SDS011;62001;53.366;6.636;2023-04-24T04:55:54;14.25;;;11.93;;
52940;SDS011;62001;53.366;6.636;2023-04-24T04:58:20;13.02;;;10.77;;
52940;SDS011;62001;53.366;6.636;2023-04-24T05:00:46;12.40;;;10.35;;
52940;SDS011;62001;53.366;6.636;2023-04-24T05:03:12;13.05;;;10.48;;
52940;SDS011;62001;53.366;6.636;2023-04-24T05:05:38;14.68;;;9.85;;
52940;SDS011;62001;53.366;6.636;2023-04-24T05:08:06;11.02;;;8.82;;
52940;SDS011;62001;53.366;6.636;2023-04-24T05:10:33;13.32;;;8.45;;
52940;SDS011;62001;53.366;6.636;2023-04-24T05:12:59;9.20;;;7.30;;
52940;SDS011;62001;53.366;6.636;2023-04-24T05:15:25;10.30;;;8.00;;
52940;SDS011;62001;53.366;6.636;2023-04-24T05:17:51;12.52;;;7.93;;
52940;SDS011;62001;53.366;6.636;2023-04-24T05:20:17;11.27;;;8.05;;
52940;SDS011;62001;53.366;6.636;2023-04-24T05:22:43;10.95;;;6.50;;
52940;SDS011;62001;53.366;6.636;2023-04-24T05:25:09;7.70;;;5.60;;
52940;SDS011;62001;53.366;6.636;2023-04-24T05:27:35;13.13;;;6.90;;
52940;SDS011;62001;53.366;6.636;2023-04-24T05:30:00;12.27;;;7.50;;
52940;SDS011;62001;53.366;6.636;2023-04-24T05:32:26;9.82;;;6.75;;
52940;SDS011;62001;53.366;6.636;2023-04-24T05:34:52;13.93;;;8.15;;
52940;SDS011;62001;53.366;6.636;2023-04-24T05:37:18;13.63;;;8.30;;
52940;SDS011;62001;53.366;6.636;2023-04-24T05:39:44;14.18;;;8.27;;
52940;SDS011;62001;53.366;6.636;2023-04-24T05:42:09;13.77;;;8.45;;
52940;SDS011;62001;53.366;6.636;2023-04-24T05:44:35;13.18;;;7.25;;
52940;SDS011;62001;53.366;6.636;2023-04-24T05:47:01;12.70;;;8.23;;
52940;SDS011;62001;53.366;6.636;2023-04-24T05:49:27;13.57;;;7.95;;
52940;SDS011;62001;53.366;6.636;2023-04-24T05:51:53;12.40;;;7.35;;
52940;SDS011;62001;53.366;6.636;2023-04-24T05:54:18;11.07;;;6.90;;
52940;SDS011;62001;53.366;6.636;2023-04-24T05:56:44;10.35;;;5.50;;
52940;SDS011;62001;53.366;6.636;2023-04-24T05:59:10;9.82;;;4.85;;
52940;SDS011;62001;53.366;6.636;2023-04-24T06:01:36;6.80;;;5.40;;
52940;SDS011;62001;53.366;6.636;2023-04-24T06:04:03;8.02;;;5.63;;
52940;SDS011;62001;53.366;6.636;2023-04-24T06:06:29;10.30;;;5.70;;
52940;SDS011;62001;53.366;6.636;2023-04-24T06:08:56;10.30;;;6.15;;
52940;SDS011;62001;53.366;6.636;2023-04-24T06:11:23;8.80;;;6.40;;
52940;SDS011;62001;53.366;6.636;2023-04-24T06:13:50;12.10;;;7.05;;
52940;SDS011;62001;53.366;6.636;2023-04-24T06:16:17;12.23;;;6.90;;
52940;SDS011;62001;53.366;6.636;2023-04-24T06:18:42;9.75;;;7.60;;
52940;SDS011;62001;53.366;6.636;2023-04-24T06:21:10;15.02;;;8.02;;
52940;SDS011;62001;53.366;6.636;2023-04-24T06:23:36;17.23;;;9.68;;
52940;SDS011;62001;53.366;6.636;2023-04-24T06:26:01;15.15;;;10.43;;
52940;SDS011;62001;53.366;6.636;2023-04-24T06:28:27;14.80;;;9.55;;
52940;SDS011;62001;53.366;6.636;2023-04-24T06:30:53;17.65;;;10.98;;
52940;SDS011;62001;53.366;6.636;2023-04-24T06:33:19;13.02;;;9.00;;
52940;SDS011;62001;53.366;6.636;2023-04-24T06:35:44;13.38;;;9.57;;
52940;SDS011;62001;53.366;6.636;2023-04-24T06:38:10;14.38;;;9.35;;
52940;SDS011;62001;53.366;6.636;2023-04-24T06:40:37;14.25;;;9.63;;
52940;SDS011;62001;53.366;6.636;2023-04-24T06:43:02;15.52;;;9.25;;
52940;SDS011;62001;53.366;6.636;2023-04-24T06:45:30;13.93;;;8.95;;
52940;SDS011;62001;53.366;6.636;2023-04-24T06:47:56;13.57;;;7.72;;
52940;SDS011;62001;53.366;6.636;2023-04-24T06:50:22;8.45;;;5.88;;
52940;SDS011;62001;53.366;6.636;2023-04-24T06:52:47;10.40;;;4.90;;
52940;SDS011;62001;53.366;6.636;2023-04-24T06:55:13;10.45;;;4.47;;
52940;SDS011;62001;53.366;6.636;2023-04-24T06:57:41;5.45;;;4.05;;
52940;SDS011;62001;53.366;6.636;2023-04-24T07:00:07;4.72;;;3.75;;
52940;SDS011;62001;53.366;6.636;2023-04-24T07:02:34;4.93;;;4.25;;
52940;SDS011;62001;53.366;6.636;2023-04-24T07:05:00;7.05;;;4.22;;
52940;SDS011;62001;53.366;6.636;2023-04-24T07:07:26;7.82;;;4.60;;
52940;SDS011;62001;53.366;6.636;2023-04-24T07:09:52;9.50;;;4.38;;
52940;SDS011;62001;53.366;6.636;2023-04-24T07:12:19;5.18;;;3.58;;
52940;SDS011;62001;53.366;6.636;2023-04-24T07:14:46;8.27;;;3.47;;
52940;SDS011;62001;53.366;6.636;2023-04-24T07:17:13;7.68;;;3.42;;
52940;SDS011;62001;53.366;6.636;2023-04-24T07:19:39;4.78;;;2.60;;
52940;SDS011;62001;53.366;6.636;2023-04-24T07:22:05;5.32;;;2.58;;
52940;SDS011;62001;53.366;6.636;2023-04-24T07:24:31;4.43;;;2.15;;
52940;SDS011;62001;53.366;6.636;2023-04-24T07:26:57;3.15;;;2.35;;
52940;SDS011;62001;53.366;6.636;2023-04-24T07:29:23;4.57;;;2.00;;
52940;SDS011;62001;53.366;6.636;2023-04-24T07:31:49;5.80;;;1.90;;
52940;SDS011;62001;53.366;6.636;2023-04-24T07:34:15;5.68;;;1.80;;
52940;SDS011;62001;53.366;6.636;2023-04-24T07:36:41;5.65;;;1.58;;
52940;SDS011;62001;53.366;6.636;2023-04-24T07:39:07;6.20;;;1.50;;
52940;SDS011;62001;53.366;6.636;2023-04-24T07:41:33;4.35;;;1.60;;
52940;SDS011;62001;53.366;6.636;2023-04-24T07:43:59;5.18;;;2.40;;
52940;SDS011;62001;53.366;6.636;2023-04-24T07:46:25;21.08;;;11.48;;
52940;SDS011;62001;53.366;6.636;2023-04-24T07:48:54;17.48;;;6.05;;
52940;SDS011;62001;53.366;6.636;2023-04-24T07:51:20;12.95;;;4.68;;
52940;SDS011;62001;53.366;6.636;2023-04-24T07:53:46;15.52;;;7.22;;
52940;SDS011;62001;53.366;6.636;2023-04-24T07:56:12;20.92;;;8.73;;
52940;SDS011;62001;53.366;6.636;2023-04-24T07:58:38;18.15;;;9.85;;
52940;SDS011;62001;53.366;6.636;2023-04-24T08:01:05;12.10;;;6.50;;
52940;SDS011;62001;53.366;6.636;2023-04-24T08:03:30;14.85;;;7.35;;
52940;SDS011;62001;53.366;6.636;2023-04-24T08:05:56;15.93;;;7.05;;
52940;SDS011;62001;53.366;6.636;2023-04-24T08:08:22;11.55;;;7.85;;
52940;SDS011;62001;53.366;6.636;2023-04-24T08:10:49;15.82;;;8.48;;
52940;SDS011;62001;53.366;6.636;2023-04-24T08:13:15;14.55;;;8.25;;
52940;SDS011;62001;53.366;6.636;2023-04-24T08:15:41;14.48;;;9.82;;
52940;SDS011;62001;53.366;6.636;2023-04-24T08:18:07;25.17;;;13.60;;
52940;SDS011;62001;53.366;6.636;2023-04-24T08:20:33;24.13;;;15.32;;
52940;SDS011;62001;53.366;6.636;2023-04-24T08:22:59;24.88;;;16.20;;
52940;SDS011;62001;53.366;6.636;2023-04-24T08:25:25;23.65;;;14.43;;
52940;SDS011;62001;53.366;6.636;2023-04-24T08:27:51;22.85;;;15.27;;
52940;SDS011;62001;53.366;6.636;2023-04-24T08:30:17;25.15;;;15.45;;
52940;SDS011;62001;53.366;6.636;2023-04-24T08:32:43;24.52;;;15.90;;
52940;SDS011;62001;53.366;6.636;2023-04-24T08:35:09;27.20;;;16.08;;
52940;SDS011;62001;53.366;6.636;2023-04-24T08:37:35;29.67;;;17.02;;
52940;SDS011;62001;53.366;6.636;2023-04-24T08:40:03;31.02;;;16.38;;
52940;SDS011;62001;53.366;6.636;2023-04-24T08:42:34;30.55;;;15.18;;
52940;SDS011;62001;53.366;6.636;2023-04-24T08:45:02;23.52;;;12.93;;
52940;SDS011;62001;53.366;6.636;2023-04-24T08:47:29;22.70;;;13.00;;
52940;SDS011;62001;53.366;6.636;2023-04-24T08:49:56;29.70;;;13.30;;
52940;SDS011;62001;53.366;6.636;2023-04-24T08:52:25;21.85;;;13.10;;
52940;SDS011;62001;53.366;6.636;2023-04-24T08:54:51;21.88;;;13.07;;
52940;SDS011;62001;53.366;6.636;2023-04-24T08:57:18;28.55;;;14.02;;
52940;SDS011;62001;53.366;6.636;2023-04-24T08:59:44;22.67;;;14.38;;
52940;SDS011;62001;53.366;6.636;2023-04-24T09:02:11;22.13;;;14.18;;
52940;SDS011;62001;53.366;6.636;2023-04-24T09:04:39;25.63;;;14.73;;
52940;SDS011;62001;53.366;6.636;2023-04-24T09:07:06;21.63;;;13.65;;
52940;SDS011;62001;53.366;6.636;2023-04-24T09:09:35;20.77;;;13.65;;
52940;SDS011;62001;53.366;6.636;2023-04-24T09:12:03;23.95;;;14.60;;
52940;SDS011;62001;53.366;6.636;2023-04-24T09:14:29;19.75;;;11.55;;
52940;SDS011;62001;53.366;6.636;2023-04-24T09:16:57;18.00;;;11.60;;
52940;SDS011;62001;53.366;6.636;2023-04-24T09:19:22;16.27;;;9.85;;
52940;SDS011;62001;53.366;6.636;2023-04-24T09:21:48;16.95;;;9.90;;
52940;SDS011;62001;53.366;6.636;2023-04-24T09:24:18;19.70;;;9.75;;
52940;SDS011;62001;53.366;6.636;2023-04-24T09:26:47;21.95;;;10.27;;
52940;SDS011;62001;53.366;6.636;2023-04-24T09:29:18;16.75;;;8.65;;
52940;SDS011;62001;53.366;6.636;2023-04-24T09:31:44;14.65;;;9.63;;
52940;SDS011;62001;53.366;6.636;2023-04-24T09:34:11;26.63;;;15.57;;
52940;SDS011;62001;53.366;6.636;2023-04-24T09:36:38;23.38;;;11.13;;
52940;SDS011;62001;53.366;6.636;2023-04-24T09:39:07;18.92;;;9.68;;
52940;SDS011;62001;53.366;6.636;2023-04-24T09:41:44;16.83;;;9.57;;
52940;SDS011;62001;53.366;6.636;2023-04-24T09:46:48;17.13;;;8.20;;
52940;SDS011;62001;53.366;6.636;2023-04-24T09:49:16;16.17;;;9.05;;
52940;SDS011;62001;53.366;6.636;2023-04-24T09:51:47;16.92;;;9.32;;
52940;SDS011;62001;53.366;6.636;2023-04-24T09:54:17;23.10;;;11.52;;
52940;SDS011;62001;53.366;6.636;2023-04-24T09:56:46;20.52;;;7.57;;
52940;SDS011;62001;53.366;6.636;2023-04-24T09:59:14;15.45;;;6.22;;
52940;SDS011;62001;53.366;6.636;2023-04-24T10:01:43;17.92;;;6.75;;
52940;SDS011;62001;53.366;6.636;2023-04-24T10:06:46;18.40;;;6.88;;
52940;SDS011;62001;53.366;6.636;2023-04-24T10:09:14;12.80;;;5.50;;
52940;SDS011;62001;53.366;6.636;2023-04-24T10:11:42;17.83;;;5.53;;
52940;SDS011;62001;53.366;6.636;2023-04-24T10:14:17;15.98;;;5.45;;
52940;SDS011;62001;53.366;6.636;2023-04-24T10:16:44;12.85;;;5.13;;
52940;SDS011;62001;53.366;6.636;2023-04-24T10:19:12;10.48;;;4.60;;
52940;SDS011;62001;53.366;6.636;2023-04-24T10:21:43;11.15;;;4.28;;
52940;SDS011;62001;53.366;6.636;2023-04-24T10:24:15;10.38;;;4.10;;
52940;SDS011;62001;53.366;6.636;2023-04-24T10:26:43;9.27;;;4.18;;
52940;SDS011;62001;53.366;6.636;2023-04-24T10:29:14;11.32;;;4.35;;
52940;SDS011;62001;53.366;6.636;2023-04-24T10:31:42;9.85;;;4.68;;
52940;SDS011;62001;53.366;6.636;2023-04-24T10:34:10;14.73;;;4.20;;
52940;SDS011;62001;53.366;6.636;2023-04-24T10:36:38;12.98;;;3.80;;
52940;SDS011;62001;53.366;6.636;2023-04-24T10:39:07;9.02;;;3.63;;
52940;SDS011;62001;53.366;6.636;2023-04-24T10:41:36;9.35;;;3.95;;
52940;SDS011;62001;53.366;6.636;2023-04-24T10:44:13;12.73;;;4.15;;
52940;SDS011;62001;53.366;6.636;2023-04-24T10:46:46;10.30;;;4.03;;
52940;SDS011;62001;53.366;6.636;2023-04-24T10:49:19;12.98;;;3.60;;
52940;SDS011;62001;53.366;6.636;2023-04-24T10:51:54;10.48;;;3.65;;
52940;SDS011;62001;53.366;6.636;2023-04-24T10:54:29;10.57;;;3.70;;
52940;SDS011;62001;53.366;6.636;2023-04-24T10:59:51;9.65;;;3.33;;
52940;SDS011;62001;53.366;6.636;2023-04-24T11:02:38;14.50;;;3.85;;
52940;SDS011;62001;53.366;6.636;2023-04-24T11:05:08;11.85;;;3.38;;
52940;SDS011;62001;53.366;6.636;2023-04-24T11:10:40;9.45;;;3.20;;
52940;SDS011;62001;53.366;6.636;2023-04-24T11:13:09;13.23;;;3.10;;
52940;SDS011;62001;53.366;6.636;2023-04-24T11:15:35;9.70;;;3.00;;
52940;SDS011;62001;53.366;6.636;2023-04-24T11:18:02;10.57;;;3.15;;
52940;SDS011;62001;53.366;6.636;2023-04-24T11:20:28;12.80;;;3.00;;
52940;SDS011;62001;53.366;6.636;2023-04-24T11:22:55;11.60;;;2.85;;
52940;SDS011;62001;53.366;6.636;2023-04-24T11:25:22;13.27;;;2.85;;
52940;SDS011;62001;53.366;6.636;2023-04-24T11:27:48;16.85;;;2.70;;
52940;SDS011;62001;53.366;6.636;2023-04-24T11:30:18;14.23;;;2.75;;
52940;SDS011;62001;53.366;6.636;2023-04-24T11:32:47;9.48;;;2.85;;
52940;SDS011;62001;53.366;6.636;2023-04-24T11:35:16;14.23;;;2.50;;
52940;SDS011;62001;53.366;6.636;2023-04-24T11:37:49;10.40;;;2.42;;
52940;SDS011;62001;53.366;6.636;2023-04-24T11:40:17;8.93;;;2.42;;
52940;SDS011;62001;53.366;6.636;2023-04-24T11:42:46;9.07;;;2.30;;
52940;SDS011;62001;53.366;6.636;2023-04-24T11:45:22;12.80;;;3.00;;
52940;SDS011;62001;53.366;6.636;2023-04-24T11:47:50;14.43;;;2.50;;
52940;SDS011;62001;53.366;6.636;2023-04-24T11:50:17;8.60;;;2.30;;
52940;SDS011;62001;53.366;6.636;2023-04-24T11:52:45;13.93;;;2.45;;
52940;SDS011;62001;53.366;6.636;2023-04-24T11:57:44;9.00;;;1.63;;
52940;SDS011;62001;53.366;6.636;2023-04-24T12:00:17;7.18;;;1.60;;
52940;SDS011;62001;53.366;6.636;2023-04-24T12:02:45;7.80;;;1.75;;
52940;SDS011;62001;53.366;6.636;2023-04-24T12:07:48;8.88;;;1.75;;
52940;SDS011;62001;53.366;6.636;2023-04-24T12:10:14;9.48;;;2.03;;
52940;SDS011;62001;53.366;6.636;2023-04-24T12:12:49;10.40;;;2.40;;
52940;SDS011;62001;53.366;6.636;2023-04-24T12:15:16;10.18;;;2.22;;
52940;SDS011;62001;53.366;6.636;2023-04-24T12:17:44;9.80;;;2.42;;
52940;SDS011;62001;53.366;6.636;2023-04-24T12:20:10;7.72;;;1.98;;
52940;SDS011;62001;53.366;6.636;2023-04-24T12:22:53;7.72;;;1.95;;
52940;SDS011;62001;53.366;6.636;2023-04-24T12:25:20;11.65;;;1.88;;
52940;SDS011;62001;53.366;6.636;2023-04-24T12:27:52;11.30;;;1.70;;
52940;SDS011;62001;53.366;6.636;2023-04-24T12:33:17;5.63;;;1.48;;
52940;SDS011;62001;53.366;6.636;2023-04-24T12:35:44;7.18;;;1.65;;
52940;SDS011;62001;53.366;6.636;2023-04-24T12:38:10;4.88;;;1.60;;
52940;SDS011;62001;53.366;6.636;2023-04-24T12:40:38;8.43;;;1.77;;
52940;SDS011;62001;53.366;6.636;2023-04-24T12:43:14;10.40;;;1.95;;
52940;SDS011;62001;53.366;6.636;2023-04-24T12:45:42;4.60;;;1.33;;
52940;SDS011;62001;53.366;6.636;2023-04-24T12:48:09;8.77;;;1.90;;
52940;SDS011;62001;53.366;6.636;2023-04-24T12:50:35;6.93;;;1.60;;
52940;SDS011;62001;53.366;6.636;2023-04-24T12:53:00;11.15;;;1.75;;
52940;SDS011;62001;53.366;6.636;2023-04-24T12:55:26;8.77;;;1.67;;
52940;SDS011;62001;53.366;6.636;2023-04-24T12:57:52;7.75;;;2.20;;
52940;SDS011;62001;53.366;6.636;2023-04-24T13:00:20;8.55;;;2.00;;
52940;SDS011;62001;53.366;6.636;2023-04-24T13:02:46;5.10;;;1.33;;
52940;SDS011;62001;53.366;6.636;2023-04-24T13:05:12;5.72;;;1.60;;
52940;SDS011;62001;53.366;6.636;2023-04-24T13:07:39;6.10;;;1.58;;
52940;SDS011;62001;53.366;6.636;2023-04-24T13:10:05;7.00;;;1.30;;
52940;SDS011;62001;53.366;6.636;2023-04-24T13:12:32;6.28;;;1.50;;
52940;SDS011;62001;53.366;6.636;2023-04-24T13:14:58;7.63;;;1.40;;
52940;SDS011;62001;53.366;6.636;2023-04-24T13:17:24;4.32;;;1.20;;
52940;SDS011;62001;53.366;6.636;2023-04-24T13:19:50;7.07;;;1.15;;
52940;SDS011;62001;53.366;6.636;2023-04-24T13:22:17;10.20;;;1.27;;
52940;SDS011;62001;53.366;6.636;2023-04-24T13:24:46;6.07;;;1.10;;
52940;SDS011;62001;53.366;6.636;2023-04-24T13:27:15;3.53;;;1.02;;
52940;SDS011;62001;53.366;6.636;2023-04-24T13:29:42;5.95;;;1.55;;
52940;SDS011;62001;53.366;6.636;2023-04-24T13:32:08;8.80;;;1.40;;
52940;SDS011;62001;53.366;6.636;2023-04-24T13:34:34;8.77;;;1.40;;
52940;SDS011;62001;53.366;6.636;2023-04-24T13:37:01;8.02;;;1.40;;
52940;SDS011;62001;53.366;6.636;2023-04-24T13:39:31;4.88;;;1.52;;
52940;SDS011;62001;53.366;6.636;2023-04-24T13:41:57;10.77;;;1.50;;
52940;SDS011;62001;53.366;6.636;2023-04-24T13:44:23;10.15;;;1.52;;
52940;SDS011;62001;53.366;6.636;2023-04-24T13:46:50;9.60;;;1.63;;
52940;SDS011;62001;53.366;6.636;2023-04-24T13:49:19;9.57;;;1.50;;
52940;SDS011;62001;53.366;6.636;2023-04-24T13:51:45;4.28;;;1.40;;
52940;SDS011;62001;53.366;6.636;2023-04-24T13:54:11;8.32;;;1.58;;
52940;SDS011;62001;53.366;6.636;2023-04-24T13:56:36;4.78;;;1.00;;
52940;SDS011;62001;53.366;6.636;2023-04-24T13:59:03;2.42;;;1.15;;
52940;SDS011;62001;53.366;6.636;2023-04-24T14:01:29;6.65;;;1.30;;
52940;SDS011;62001;53.366;6.636;2023-04-24T14:03:55;7.00;;;1.55;;
52940;SDS011;62001;53.366;6.636;2023-04-24T14:06:22;9.02;;;1.40;;
52940;SDS011;62001;53.366;6.636;2023-04-24T14:08:48;4.38;;;1.25;;
52940;SDS011;62001;53.366;6.636;2023-04-24T14:11:15;7.28;;;1.30;;
52940;SDS011;62001;53.366;6.636;2023-04-24T14:13:42;7.43;;;1.80;;
52940;SDS011;62001;53.366;6.636;2023-04-24T14:16:08;6.35;;;1.60;;
52940;SDS011;62001;53.366;6.636;2023-04-24T14:18:35;5.82;;;2.05;;
52940;SDS011;62001;53.366;6.636;2023-04-24T14:21:01;6.03;;;1.60;;
52940;SDS011;62001;53.366;6.636;2023-04-24T14:23:28;7.75;;;1.77;;
52940;SDS011;62001;53.366;6.636;2023-04-24T14:25:54;8.95;;;2.10;;
52940;SDS011;62001;53.366;6.636;2023-04-24T14:28:20;8.63;;;2.50;;
52940;SDS011;62001;53.366;6.636;2023-04-24T14:30:47;12.45;;;2.22;;
52940;SDS011;62001;53.366;6.636;2023-04-24T14:33:13;8.45;;;2.50;;
52940;SDS011;62001;53.366;6.636;2023-04-24T14:35:40;8.07;;;2.60;;
52940;SDS011;62001;53.366;6.636;2023-04-24T14:38:09;8.45;;;2.70;;
52940;SDS011;62001;53.366;6.636;2023-04-24T14:40:36;7.05;;;2.47;;
52940;SDS011;62001;53.366;6.636;2023-04-24T14:43:02;6.53;;;2.63;;
52940;SDS011;62001;53.366;6.636;2023-04-24T14:45:28;9.50;;;3.10;;
52940;SDS011;62001;53.366;6.636;2023-04-24T14:47:54;10.88;;;3.53;;
52940;SDS011;62001;53.366;6.636;2023-04-24T14:50:21;11.27;;;3.03;;
52940;SDS011;62001;53.366;6.636;2023-04-24T14:52:46;8.75;;;3.35;;
52940;SDS011;62001;53.366;6.636;2023-04-24T14:55:12;10.90;;;3.20;;